<?xml version="1.0" encoding="UTF-8" standalone="no" ?>
<gpx xmlns="http://www.topografix.com/GPX/1/1" xmlns:xsi="http://www.w3.org/2001/XMLSchema-instance" xsi:schemaLocation="http://www.topografix.com/GPX/1/1 http://www.topografix.com/GPX/1/1/gpx.xsd" version="1.1" creator="VisuGPX - https://www.visugpx.com">
  <metadata>
    <name>Petite balade à pieds</name>
    <desc><![CDATA[Balade autour de Montreuil (Madelaine)]]></desc>
  </metadata>
  <trk>
    <name><![CDATA[Sequence 1]]></name>
    <trkseg>
      <trkpt lat="50.44892" lon="1.75042">
        <ele>27</ele>
        <time>2015-02-25T16:49:52Z</time>
      </trkpt>
      <trkpt lat="50.44901" lon="1.75021">
        <ele>32</ele>
        <time>2015-02-25T16:50:05Z</time>
      </trkpt>
      <trkpt lat="50.449" lon="1.75022">
        <ele>30</ele>
        <time>2015-02-25T16:50:18Z</time>
      </trkpt>
      <trkpt lat="50.44899" lon="1.75024">
        <ele>32</ele>
        <time>2015-02-25T16:50:23Z</time>
      </trkpt>
      <trkpt lat="50.44917" lon="1.75035">
        <ele>27</ele>
        <time>2015-02-25T16:50:40Z</time>
      </trkpt>
      <trkpt lat="50.44921" lon="1.75038">
        <ele>24</ele>
        <time>2015-02-25T16:50:45Z</time>
      </trkpt>
      <trkpt lat="50.44934" lon="1.75061">
        <ele>23</ele>
        <time>2015-02-25T16:51:02Z</time>
      </trkpt>
      <trkpt lat="50.44945" lon="1.75077">
        <ele>24</ele>
        <time>2015-02-25T16:51:14Z</time>
      </trkpt>
      <trkpt lat="50.44953" lon="1.75082">
        <ele>24</ele>
        <time>2015-02-25T16:51:19Z</time>
      </trkpt>
      <trkpt lat="50.44962" lon="1.75073">
        <ele>27</ele>
        <time>2015-02-25T16:51:29Z</time>
      </trkpt>
      <trkpt lat="50.44975" lon="1.75072">
        <ele>26</ele>
        <time>2015-02-25T16:51:40Z</time>
      </trkpt>
      <trkpt lat="50.44984" lon="1.7508">
        <ele>28</ele>
        <time>2015-02-25T16:51:51Z</time>
      </trkpt>
      <trkpt lat="50.45005" lon="1.75103">
        <ele>31</ele>
        <time>2015-02-25T16:52:10Z</time>
      </trkpt>
      <trkpt lat="50.45008" lon="1.75106">
        <ele>28</ele>
        <time>2015-02-25T16:52:13Z</time>
      </trkpt>
      <trkpt lat="50.45019" lon="1.75118">
        <ele>28</ele>
        <time>2015-02-25T16:52:26Z</time>
      </trkpt>
      <trkpt lat="50.45039" lon="1.75134">
        <ele>27</ele>
        <time>2015-02-25T16:52:43Z</time>
      </trkpt>
      <trkpt lat="50.45046" lon="1.75145">
        <ele>25</ele>
        <time>2015-02-25T16:52:51Z</time>
      </trkpt>
      <trkpt lat="50.45055" lon="1.75153">
        <ele>23</ele>
        <time>2015-02-25T16:53:01Z</time>
      </trkpt>
      <trkpt lat="50.45062" lon="1.75161">
        <ele>27</ele>
        <time>2015-02-25T16:53:08Z</time>
      </trkpt>
      <trkpt lat="50.45073" lon="1.75172">
        <ele>25</ele>
        <time>2015-02-25T16:53:19Z</time>
      </trkpt>
      <trkpt lat="50.45087" lon="1.75188">
        <ele>25</ele>
        <time>2015-02-25T16:53:34Z</time>
      </trkpt>
      <trkpt lat="50.45092" lon="1.75195">
        <ele>26</ele>
        <time>2015-02-25T16:53:41Z</time>
      </trkpt>
      <trkpt lat="50.45103" lon="1.75205">
        <ele>24</ele>
        <time>2015-02-25T16:53:52Z</time>
      </trkpt>
      <trkpt lat="50.45113" lon="1.75216">
        <ele>20</ele>
        <time>2015-02-25T16:54:03Z</time>
      </trkpt>
      <trkpt lat="50.45126" lon="1.7523">
        <ele>25</ele>
        <time>2015-02-25T16:54:14Z</time>
      </trkpt>
      <trkpt lat="50.45141" lon="1.75247">
        <ele>27</ele>
        <time>2015-02-25T16:54:29Z</time>
      </trkpt>
      <trkpt lat="50.45148" lon="1.75276">
        <ele>27</ele>
        <time>2015-02-25T16:54:46Z</time>
      </trkpt>
      <trkpt lat="50.45147" lon="1.75277">
        <ele>26</ele>
        <time>2015-02-25T16:54:47Z</time>
      </trkpt>
      <trkpt lat="50.45139" lon="1.7529">
        <ele>31</ele>
        <time>2015-02-25T16:54:58Z</time>
      </trkpt>
      <trkpt lat="50.45132" lon="1.75309">
        <ele>34</ele>
        <time>2015-02-25T16:55:09Z</time>
      </trkpt>
      <trkpt lat="50.45127" lon="1.75328">
        <ele>30</ele>
        <time>2015-02-25T16:55:20Z</time>
      </trkpt>
      <trkpt lat="50.45121" lon="1.75343">
        <ele>26</ele>
        <time>2015-02-25T16:55:31Z</time>
      </trkpt>
      <trkpt lat="50.45116" lon="1.75361">
        <ele>27</ele>
        <time>2015-02-25T16:55:42Z</time>
      </trkpt>
      <trkpt lat="50.4511" lon="1.75381">
        <ele>31</ele>
        <time>2015-02-25T16:55:53Z</time>
      </trkpt>
      <trkpt lat="50.45105" lon="1.75397">
        <ele>26</ele>
        <time>2015-02-25T16:56:04Z</time>
      </trkpt>
      <trkpt lat="50.45101" lon="1.75415">
        <ele>26</ele>
        <time>2015-02-25T16:56:15Z</time>
      </trkpt>
      <trkpt lat="50.45096" lon="1.75434">
        <ele>30</ele>
        <time>2015-02-25T16:56:27Z</time>
      </trkpt>
      <trkpt lat="50.45092" lon="1.75453">
        <ele>29</ele>
        <time>2015-02-25T16:56:37Z</time>
      </trkpt>
      <trkpt lat="50.4509" lon="1.75476">
        <ele>27</ele>
        <time>2015-02-25T16:56:49Z</time>
      </trkpt>
      <trkpt lat="50.45097" lon="1.75511">
        <ele>25</ele>
        <time>2015-02-25T16:57:06Z</time>
      </trkpt>
      <trkpt lat="50.45101" lon="1.7552">
        <ele>23</ele>
        <time>2015-02-25T16:57:13Z</time>
      </trkpt>
      <trkpt lat="50.45106" lon="1.75531">
        <ele>22</ele>
        <time>2015-02-25T16:57:21Z</time>
      </trkpt>
      <trkpt lat="50.45115" lon="1.75547">
        <ele>23</ele>
        <time>2015-02-25T16:57:32Z</time>
      </trkpt>
      <trkpt lat="50.45123" lon="1.75565">
        <ele>24</ele>
        <time>2015-02-25T16:57:43Z</time>
      </trkpt>
      <trkpt lat="50.45132" lon="1.75579">
        <ele>25</ele>
        <time>2015-02-25T16:57:54Z</time>
      </trkpt>
      <trkpt lat="50.45136" lon="1.75577">
        <ele>24</ele>
        <time>2015-02-25T16:58:11Z</time>
      </trkpt>
      <trkpt lat="50.45136" lon="1.75577">
        <ele>24</ele>
        <time>2015-02-25T16:58:16Z</time>
      </trkpt>
      <trkpt lat="50.45139" lon="1.75583">
        <ele>25</ele>
        <time>2015-02-25T16:58:29Z</time>
      </trkpt>
      <trkpt lat="50.45143" lon="1.75585">
        <ele>26</ele>
        <time>2015-02-25T16:58:38Z</time>
      </trkpt>
      <trkpt lat="50.45154" lon="1.75593">
        <ele>25</ele>
        <time>2015-02-25T16:58:49Z</time>
      </trkpt>
      <trkpt lat="50.45165" lon="1.75604">
        <ele>29</ele>
        <time>2015-02-25T16:59:00Z</time>
      </trkpt>
      <trkpt lat="50.45176" lon="1.75613">
        <ele>27</ele>
        <time>2015-02-25T16:59:11Z</time>
      </trkpt>
      <trkpt lat="50.45188" lon="1.75624">
        <ele>25</ele>
        <time>2015-02-25T16:59:22Z</time>
      </trkpt>
      <trkpt lat="50.45199" lon="1.75638">
        <ele>23</ele>
        <time>2015-02-25T16:59:34Z</time>
      </trkpt>
      <trkpt lat="50.45213" lon="1.75653">
        <ele>22</ele>
        <time>2015-02-25T16:59:52Z</time>
      </trkpt>
      <trkpt lat="50.45217" lon="1.75655">
        <ele>23</ele>
        <time>2015-02-25T16:59:55Z</time>
      </trkpt>
      <trkpt lat="50.45229" lon="1.75667">
        <ele>24</ele>
        <time>2015-02-25T17:00:06Z</time>
      </trkpt>
      <trkpt lat="50.45239" lon="1.75677">
        <ele>22</ele>
        <time>2015-02-25T17:00:17Z</time>
      </trkpt>
      <trkpt lat="50.45259" lon="1.75695">
        <ele>30</ele>
        <time>2015-02-25T17:00:34Z</time>
      </trkpt>
      <trkpt lat="50.45265" lon="1.75698">
        <ele>29</ele>
        <time>2015-02-25T17:00:39Z</time>
      </trkpt>
      <trkpt lat="50.45279" lon="1.75707">
        <ele>23</ele>
        <time>2015-02-25T17:00:59Z</time>
      </trkpt>
      <trkpt lat="50.45279" lon="1.75706">
        <ele>23</ele>
        <time>2015-02-25T17:01:06Z</time>
      </trkpt>
      <trkpt lat="50.45278" lon="1.75705">
        <ele>24</ele>
        <time>2015-02-25T17:01:11Z</time>
      </trkpt>
      <trkpt lat="50.45279" lon="1.75705">
        <ele>24</ele>
        <time>2015-02-25T17:01:31Z</time>
      </trkpt>
      <trkpt lat="50.45279" lon="1.75705">
        <ele>24</ele>
        <time>2015-02-25T17:01:32Z</time>
      </trkpt>
      <trkpt lat="50.45279" lon="1.75705">
        <ele>23</ele>
        <time>2015-02-25T17:01:43Z</time>
      </trkpt>
      <trkpt lat="50.45278" lon="1.75705">
        <ele>23</ele>
        <time>2015-02-25T17:02:02Z</time>
      </trkpt>
      <trkpt lat="50.45279" lon="1.75705">
        <ele>23</ele>
        <time>2015-02-25T17:02:05Z</time>
      </trkpt>
      <trkpt lat="50.45279" lon="1.75705">
        <ele>23</ele>
        <time>2015-02-25T17:02:16Z</time>
      </trkpt>
      <trkpt lat="50.45279" lon="1.75705">
        <ele>23</ele>
        <time>2015-02-25T17:02:27Z</time>
      </trkpt>
      <trkpt lat="50.45279" lon="1.75705">
        <ele>24</ele>
        <time>2015-02-25T17:02:38Z</time>
      </trkpt>
      <trkpt lat="50.45278" lon="1.75705">
        <ele>24</ele>
        <time>2015-02-25T17:02:59Z</time>
      </trkpt>
      <trkpt lat="50.45279" lon="1.75705">
        <ele>24</ele>
        <time>2015-02-25T17:03:00Z</time>
      </trkpt>
      <trkpt lat="50.45278" lon="1.75705">
        <ele>24</ele>
        <time>2015-02-25T17:03:11Z</time>
      </trkpt>
      <trkpt lat="50.45285" lon="1.75707">
        <ele>22</ele>
        <time>2015-02-25T17:03:24Z</time>
      </trkpt>
      <trkpt lat="50.45304" lon="1.75723">
        <ele>24</ele>
        <time>2015-02-25T17:03:43Z</time>
      </trkpt>
      <trkpt lat="50.45305" lon="1.75724">
        <ele>25</ele>
        <time>2015-02-25T17:03:44Z</time>
      </trkpt>
      <trkpt lat="50.45321" lon="1.75743">
        <ele>27</ele>
        <time>2015-02-25T17:04:04Z</time>
      </trkpt>
      <trkpt lat="50.45332" lon="1.75751">
        <ele>25</ele>
        <time>2015-02-25T17:04:15Z</time>
      </trkpt>
      <trkpt lat="50.45333" lon="1.75753">
        <ele>25</ele>
        <time>2015-02-25T17:04:17Z</time>
      </trkpt>
      <trkpt lat="50.45347" lon="1.75761">
        <ele>26</ele>
        <time>2015-02-25T17:04:30Z</time>
      </trkpt>
      <trkpt lat="50.45357" lon="1.75765">
        <ele>27</ele>
        <time>2015-02-25T17:04:39Z</time>
      </trkpt>
      <trkpt lat="50.45371" lon="1.75774">
        <ele>27</ele>
        <time>2015-02-25T17:04:52Z</time>
      </trkpt>
      <trkpt lat="50.45379" lon="1.75779">
        <ele>26</ele>
        <time>2015-02-25T17:05:01Z</time>
      </trkpt>
      <trkpt lat="50.45394" lon="1.7579">
        <ele>26</ele>
        <time>2015-02-25T17:05:16Z</time>
      </trkpt>
      <trkpt lat="50.45403" lon="1.75793">
        <ele>27</ele>
        <time>2015-02-25T17:05:23Z</time>
      </trkpt>
      <trkpt lat="50.45421" lon="1.75802">
        <ele>28</ele>
        <time>2015-02-25T17:05:40Z</time>
      </trkpt>
      <trkpt lat="50.45424" lon="1.75805">
        <ele>27</ele>
        <time>2015-02-25T17:05:45Z</time>
      </trkpt>
      <trkpt lat="50.45438" lon="1.75809">
        <ele>29</ele>
        <time>2015-02-25T17:05:56Z</time>
      </trkpt>
      <trkpt lat="50.45449" lon="1.75818">
        <ele>25</ele>
        <time>2015-02-25T17:06:07Z</time>
      </trkpt>
      <trkpt lat="50.45464" lon="1.75827">
        <ele>21</ele>
        <time>2015-02-25T17:06:23Z</time>
      </trkpt>
      <trkpt lat="50.45473" lon="1.75831">
        <ele>19</ele>
        <time>2015-02-25T17:06:31Z</time>
      </trkpt>
      <trkpt lat="50.45482" lon="1.75832">
        <ele>19</ele>
        <time>2015-02-25T17:06:40Z</time>
      </trkpt>
      <trkpt lat="50.4549" lon="1.75837">
        <ele>22</ele>
        <time>2015-02-25T17:06:51Z</time>
      </trkpt>
      <trkpt lat="50.45498" lon="1.75839">
        <ele>25</ele>
        <time>2015-02-25T17:07:02Z</time>
      </trkpt>
      <trkpt lat="50.45522" lon="1.75853">
        <ele>32</ele>
        <time>2015-02-25T17:07:23Z</time>
      </trkpt>
      <trkpt lat="50.45524" lon="1.75854">
        <ele>32</ele>
        <time>2015-02-25T17:07:24Z</time>
      </trkpt>
      <trkpt lat="50.45538" lon="1.75865">
        <ele>26</ele>
        <time>2015-02-25T17:07:40Z</time>
      </trkpt>
      <trkpt lat="50.45543" lon="1.7587">
        <ele>21</ele>
        <time>2015-02-25T17:07:46Z</time>
      </trkpt>
      <trkpt lat="50.45564" lon="1.75886">
        <ele>18</ele>
        <time>2015-02-25T17:08:07Z</time>
      </trkpt>
      <trkpt lat="50.45577" lon="1.75893">
        <ele>20</ele>
        <time>2015-02-25T17:08:18Z</time>
      </trkpt>
      <trkpt lat="50.4558" lon="1.75897">
        <ele>20</ele>
        <time>2015-02-25T17:08:22Z</time>
      </trkpt>
      <trkpt lat="50.45586" lon="1.75904">
        <ele>22</ele>
        <time>2015-02-25T17:08:30Z</time>
      </trkpt>
      <trkpt lat="50.45599" lon="1.75911">
        <ele>23</ele>
        <time>2015-02-25T17:08:41Z</time>
      </trkpt>
      <trkpt lat="50.45615" lon="1.75922">
        <ele>24</ele>
        <time>2015-02-25T17:08:57Z</time>
      </trkpt>
      <trkpt lat="50.45623" lon="1.75926">
        <ele>26</ele>
        <time>2015-02-25T17:09:04Z</time>
      </trkpt>
      <trkpt lat="50.45642" lon="1.75937">
        <ele>29</ele>
        <time>2015-02-25T17:09:23Z</time>
      </trkpt>
      <trkpt lat="50.45644" lon="1.75937">
        <ele>29</ele>
        <time>2015-02-25T17:09:25Z</time>
      </trkpt>
      <trkpt lat="50.45656" lon="1.75933">
        <ele>27</ele>
        <time>2015-02-25T17:09:36Z</time>
      </trkpt>
      <trkpt lat="50.45666" lon="1.75917">
        <ele>23</ele>
        <time>2015-02-25T17:09:47Z</time>
      </trkpt>
      <trkpt lat="50.45672" lon="1.75907">
        <ele>22</ele>
        <time>2015-02-25T17:09:59Z</time>
      </trkpt>
      <trkpt lat="50.45679" lon="1.75917">
        <ele>23</ele>
        <time>2015-02-25T17:10:09Z</time>
      </trkpt>
      <trkpt lat="50.45686" lon="1.75926">
        <ele>21</ele>
        <time>2015-02-25T17:10:26Z</time>
      </trkpt>
      <trkpt lat="50.4569" lon="1.75934">
        <ele>21</ele>
        <time>2015-02-25T17:10:32Z</time>
      </trkpt>
      <trkpt lat="50.45696" lon="1.75948">
        <ele>20</ele>
        <time>2015-02-25T17:10:42Z</time>
      </trkpt>
      <trkpt lat="50.45707" lon="1.75959">
        <ele>21</ele>
        <time>2015-02-25T17:10:53Z</time>
      </trkpt>
      <trkpt lat="50.4572" lon="1.75989">
        <ele>26</ele>
        <time>2015-02-25T17:11:13Z</time>
      </trkpt>
      <trkpt lat="50.45725" lon="1.75996">
        <ele>24</ele>
        <time>2015-02-25T17:11:18Z</time>
      </trkpt>
      <trkpt lat="50.45729" lon="1.76006">
        <ele>25</ele>
        <time>2015-02-25T17:11:26Z</time>
      </trkpt>
      <trkpt lat="50.45735" lon="1.76022">
        <ele>26</ele>
        <time>2015-02-25T17:11:37Z</time>
      </trkpt>
      <trkpt lat="50.45746" lon="1.76037">
        <ele>24</ele>
        <time>2015-02-25T17:11:50Z</time>
      </trkpt>
      <trkpt lat="50.45754" lon="1.76047">
        <ele>26</ele>
        <time>2015-02-25T17:11:59Z</time>
      </trkpt>
      <trkpt lat="50.45765" lon="1.76062">
        <ele>32</ele>
        <time>2015-02-25T17:12:10Z</time>
      </trkpt>
      <trkpt lat="50.45776" lon="1.76068">
        <ele>26</ele>
        <time>2015-02-25T17:12:27Z</time>
      </trkpt>
      <trkpt lat="50.45794" lon="1.76065">
        <ele>29</ele>
        <time>2015-02-25T17:12:42Z</time>
      </trkpt>
      <trkpt lat="50.45795" lon="1.76065">
        <ele>29</ele>
        <time>2015-02-25T17:12:43Z</time>
      </trkpt>
      <trkpt lat="50.45806" lon="1.76063">
        <ele>28</ele>
        <time>2015-02-25T17:12:55Z</time>
      </trkpt>
      <trkpt lat="50.45815" lon="1.76062">
        <ele>26</ele>
        <time>2015-02-25T17:13:05Z</time>
      </trkpt>
      <trkpt lat="50.45824" lon="1.76056">
        <ele>24</ele>
        <time>2015-02-25T17:13:16Z</time>
      </trkpt>
      <trkpt lat="50.4584" lon="1.76046">
        <ele>22</ele>
        <time>2015-02-25T17:13:31Z</time>
      </trkpt>
      <trkpt lat="50.45855" lon="1.7604">
        <ele>24</ele>
        <time>2015-02-25T17:13:45Z</time>
      </trkpt>
      <trkpt lat="50.45858" lon="1.76037">
        <ele>24</ele>
        <time>2015-02-25T17:13:49Z</time>
      </trkpt>
      <trkpt lat="50.45873" lon="1.76024">
        <ele>28</ele>
        <time>2015-02-25T17:14:06Z</time>
      </trkpt>
      <trkpt lat="50.4588" lon="1.76018">
        <ele>29</ele>
        <time>2015-02-25T17:14:14Z</time>
      </trkpt>
      <trkpt lat="50.45887" lon="1.76012">
        <ele>31</ele>
        <time>2015-02-25T17:14:22Z</time>
      </trkpt>
      <trkpt lat="50.45896" lon="1.75999">
        <ele>32</ele>
        <time>2015-02-25T17:14:33Z</time>
      </trkpt>
      <trkpt lat="50.45907" lon="1.7597">
        <ele>34</ele>
        <time>2015-02-25T17:14:51Z</time>
      </trkpt>
      <trkpt lat="50.45909" lon="1.75966">
        <ele>34</ele>
        <time>2015-02-25T17:14:54Z</time>
      </trkpt>
      <trkpt lat="50.45916" lon="1.75952">
        <ele>34</ele>
        <time>2015-02-25T17:15:04Z</time>
      </trkpt>
      <trkpt lat="50.45924" lon="1.75936">
        <ele>36</ele>
        <time>2015-02-25T17:15:15Z</time>
      </trkpt>
      <trkpt lat="50.45934" lon="1.75918">
        <ele>35</ele>
        <time>2015-02-25T17:15:33Z</time>
      </trkpt>
      <trkpt lat="50.45936" lon="1.7591">
        <ele>39</ele>
        <time>2015-02-25T17:15:37Z</time>
      </trkpt>
      <trkpt lat="50.45939" lon="1.75891">
        <ele>40</ele>
        <time>2015-02-25T17:15:48Z</time>
      </trkpt>
      <trkpt lat="50.45943" lon="1.75867">
        <ele>35</ele>
        <time>2015-02-25T17:16:06Z</time>
      </trkpt>
      <trkpt lat="50.45944" lon="1.75859">
        <ele>37</ele>
        <time>2015-02-25T17:16:10Z</time>
      </trkpt>
      <trkpt lat="50.45947" lon="1.75833">
        <ele>38</ele>
        <time>2015-02-25T17:16:23Z</time>
      </trkpt>
      <trkpt lat="50.45955" lon="1.75814">
        <ele>36</ele>
        <time>2015-02-25T17:16:39Z</time>
      </trkpt>
      <trkpt lat="50.45959" lon="1.75814">
        <ele>35</ele>
        <time>2015-02-25T17:16:44Z</time>
      </trkpt>
      <trkpt lat="50.45961" lon="1.75803">
        <ele>35</ele>
        <time>2015-02-25T17:16:55Z</time>
      </trkpt>
      <trkpt lat="50.45978" lon="1.75808">
        <ele>37</ele>
        <time>2015-02-25T17:17:15Z</time>
      </trkpt>
      <trkpt lat="50.45979" lon="1.75809">
        <ele>37</ele>
        <time>2015-02-25T17:17:18Z</time>
      </trkpt>
      <trkpt lat="50.45981" lon="1.75809">
        <ele>36</ele>
        <time>2015-02-25T17:17:30Z</time>
      </trkpt>
      <trkpt lat="50.45981" lon="1.75809">
        <ele>36</ele>
        <time>2015-02-25T17:17:38Z</time>
      </trkpt>
      <trkpt lat="50.45981" lon="1.75809">
        <ele>36</ele>
        <time>2015-02-25T17:17:58Z</time>
      </trkpt>
      <trkpt lat="50.45981" lon="1.75809">
        <ele>36</ele>
        <time>2015-02-25T17:18:00Z</time>
      </trkpt>
      <trkpt lat="50.45981" lon="1.75809">
        <ele>36</ele>
        <time>2015-02-25T17:18:16Z</time>
      </trkpt>
      <trkpt lat="50.45982" lon="1.75795">
        <ele>40</ele>
        <time>2015-02-25T17:18:30Z</time>
      </trkpt>
      <trkpt lat="50.45983" lon="1.75795">
        <ele>39</ele>
        <time>2015-02-25T17:18:34Z</time>
      </trkpt>
      <trkpt lat="50.45983" lon="1.75792">
        <ele>40</ele>
        <time>2015-02-25T17:18:44Z</time>
      </trkpt>
      <trkpt lat="50.45984" lon="1.75789">
        <ele>43</ele>
        <time>2015-02-25T17:18:55Z</time>
      </trkpt>
      <trkpt lat="50.45984" lon="1.75786">
        <ele>45</ele>
        <time>2015-02-25T17:19:06Z</time>
      </trkpt>
      <trkpt lat="50.45988" lon="1.75783">
        <ele>42</ele>
        <time>2015-02-25T17:19:21Z</time>
      </trkpt>
      <trkpt lat="50.4599" lon="1.75784">
        <ele>42</ele>
        <time>2015-02-25T17:19:31Z</time>
      </trkpt>
      <trkpt lat="50.4599" lon="1.75785">
        <ele>41</ele>
        <time>2015-02-25T17:19:39Z</time>
      </trkpt>
      <trkpt lat="50.4599" lon="1.75784">
        <ele>42</ele>
        <time>2015-02-25T17:19:50Z</time>
      </trkpt>
      <trkpt lat="50.4599" lon="1.75784">
        <ele>42</ele>
        <time>2015-02-25T17:20:03Z</time>
      </trkpt>
      <trkpt lat="50.4599" lon="1.75784">
        <ele>42</ele>
        <time>2015-02-25T17:20:13Z</time>
      </trkpt>
      <trkpt lat="50.4599" lon="1.75784">
        <ele>42</ele>
        <time>2015-02-25T17:20:23Z</time>
      </trkpt>
      <trkpt lat="50.4599" lon="1.75783">
        <ele>42</ele>
        <time>2015-02-25T17:20:43Z</time>
      </trkpt>
      <trkpt lat="50.4599" lon="1.75783">
        <ele>42</ele>
        <time>2015-02-25T17:20:45Z</time>
      </trkpt>
      <trkpt lat="50.4599" lon="1.75783">
        <ele>43</ele>
        <time>2015-02-25T17:21:05Z</time>
      </trkpt>
      <trkpt lat="50.4599" lon="1.75783">
        <ele>43</ele>
        <time>2015-02-25T17:21:10Z</time>
      </trkpt>
      <trkpt lat="50.4599" lon="1.75783">
        <ele>43</ele>
        <time>2015-02-25T17:21:19Z</time>
      </trkpt>
      <trkpt lat="50.45989" lon="1.75783">
        <ele>43</ele>
        <time>2015-02-25T17:21:29Z</time>
      </trkpt>
      <trkpt lat="50.45989" lon="1.75783">
        <ele>43</ele>
        <time>2015-02-25T17:21:40Z</time>
      </trkpt>
      <trkpt lat="50.45989" lon="1.75782">
        <ele>45</ele>
        <time>2015-02-25T17:21:55Z</time>
      </trkpt>
      <trkpt lat="50.4599" lon="1.75781">
        <ele>46</ele>
        <time>2015-02-25T17:22:02Z</time>
      </trkpt>
      <trkpt lat="50.4599" lon="1.75781">
        <ele>46</ele>
        <time>2015-02-25T17:22:13Z</time>
      </trkpt>
      <trkpt lat="50.4599" lon="1.75781">
        <ele>46</ele>
        <time>2015-02-25T17:22:24Z</time>
      </trkpt>
      <trkpt lat="50.4599" lon="1.75781">
        <ele>47</ele>
        <time>2015-02-25T17:22:35Z</time>
      </trkpt>
      <trkpt lat="50.4599" lon="1.75781">
        <ele>47</ele>
        <time>2015-02-25T17:22:46Z</time>
      </trkpt>
      <trkpt lat="50.4599" lon="1.75781">
        <ele>47</ele>
        <time>2015-02-25T17:22:58Z</time>
      </trkpt>
      <trkpt lat="50.4599" lon="1.75781">
        <ele>47</ele>
        <time>2015-02-25T17:23:08Z</time>
      </trkpt>
      <trkpt lat="50.4599" lon="1.75781">
        <ele>47</ele>
        <time>2015-02-25T17:23:19Z</time>
      </trkpt>
      <trkpt lat="50.45989" lon="1.7578">
        <ele>49</ele>
        <time>2015-02-25T17:23:38Z</time>
      </trkpt>
      <trkpt lat="50.45989" lon="1.75777">
        <ele>52</ele>
        <time>2015-02-25T17:23:41Z</time>
      </trkpt>
      <trkpt lat="50.45989" lon="1.75773">
        <ele>56</ele>
        <time>2015-02-25T17:24:02Z</time>
      </trkpt>
      <trkpt lat="50.45989" lon="1.75773">
        <ele>56</ele>
        <time>2015-02-25T17:24:04Z</time>
      </trkpt>
      <trkpt lat="50.45989" lon="1.75773">
        <ele>56</ele>
        <time>2015-02-25T17:24:14Z</time>
      </trkpt>
      <trkpt lat="50.45989" lon="1.75773">
        <ele>56</ele>
        <time>2015-02-25T17:24:31Z</time>
      </trkpt>
      <trkpt lat="50.45989" lon="1.75773">
        <ele>56</ele>
        <time>2015-02-25T17:24:41Z</time>
      </trkpt>
      <trkpt lat="50.45989" lon="1.75773">
        <ele>56</ele>
        <time>2015-02-25T17:24:47Z</time>
      </trkpt>
      <trkpt lat="50.45989" lon="1.75779">
        <ele>53</ele>
        <time>2015-02-25T17:25:01Z</time>
      </trkpt>
      <trkpt lat="50.45988" lon="1.75781">
        <ele>55</ele>
        <time>2015-02-25T17:25:16Z</time>
      </trkpt>
      <trkpt lat="50.45986" lon="1.75778">
        <ele>59</ele>
        <time>2015-02-25T17:25:20Z</time>
      </trkpt>
      <trkpt lat="50.45987" lon="1.75776">
        <ele>61</ele>
        <time>2015-02-25T17:25:39Z</time>
      </trkpt>
      <trkpt lat="50.45988" lon="1.75775">
        <ele>62</ele>
        <time>2015-02-25T17:25:44Z</time>
      </trkpt>
      <trkpt lat="50.45987" lon="1.75775">
        <ele>62</ele>
        <time>2015-02-25T17:25:53Z</time>
      </trkpt>
      <trkpt lat="50.45987" lon="1.75774">
        <ele>62</ele>
        <time>2015-02-25T17:26:09Z</time>
      </trkpt>
      <trkpt lat="50.45987" lon="1.75774">
        <ele>62</ele>
        <time>2015-02-25T17:26:16Z</time>
      </trkpt>
      <trkpt lat="50.4599" lon="1.75784">
        <ele>55</ele>
        <time>2015-02-25T17:26:32Z</time>
      </trkpt>
      <trkpt lat="50.4599" lon="1.75785">
        <ele>55</ele>
        <time>2015-02-25T17:26:37Z</time>
      </trkpt>
      <trkpt lat="50.4599" lon="1.75785">
        <ele>55</ele>
        <time>2015-02-25T17:26:48Z</time>
      </trkpt>
      <trkpt lat="50.45989" lon="1.75784">
        <ele>55</ele>
        <time>2015-02-25T17:27:09Z</time>
      </trkpt>
      <trkpt lat="50.45989" lon="1.75785">
        <ele>55</ele>
        <time>2015-02-25T17:27:10Z</time>
      </trkpt>
      <trkpt lat="50.45987" lon="1.75781">
        <ele>59</ele>
        <time>2015-02-25T17:27:21Z</time>
      </trkpt>
      <trkpt lat="50.45988" lon="1.75781">
        <ele>59</ele>
        <time>2015-02-25T17:27:32Z</time>
      </trkpt>
      <trkpt lat="50.45988" lon="1.75781">
        <ele>59</ele>
        <time>2015-02-25T17:27:43Z</time>
      </trkpt>
      <trkpt lat="50.45988" lon="1.75781">
        <ele>59</ele>
        <time>2015-02-25T17:27:54Z</time>
      </trkpt>
      <trkpt lat="50.45988" lon="1.75781">
        <ele>59</ele>
        <time>2015-02-25T17:28:05Z</time>
      </trkpt>
      <trkpt lat="50.45988" lon="1.75781">
        <ele>59</ele>
        <time>2015-02-25T17:28:18Z</time>
      </trkpt>
      <trkpt lat="50.45988" lon="1.75781">
        <ele>59</ele>
        <time>2015-02-25T17:28:30Z</time>
      </trkpt>
      <trkpt lat="50.45988" lon="1.75781">
        <ele>59</ele>
        <time>2015-02-25T17:28:38Z</time>
      </trkpt>
      <trkpt lat="50.45988" lon="1.7578">
        <ele>59</ele>
        <time>2015-02-25T17:28:59Z</time>
      </trkpt>
      <trkpt lat="50.45988" lon="1.7578">
        <ele>59</ele>
        <time>2015-02-25T17:29:02Z</time>
      </trkpt>
      <trkpt lat="50.45988" lon="1.7578">
        <ele>59</ele>
        <time>2015-02-25T17:29:11Z</time>
      </trkpt>
      <trkpt lat="50.45988" lon="1.7578">
        <ele>59</ele>
        <time>2015-02-25T17:29:22Z</time>
      </trkpt>
      <trkpt lat="50.45988" lon="1.7578">
        <ele>59</ele>
        <time>2015-02-25T17:29:37Z</time>
      </trkpt>
      <trkpt lat="50.45988" lon="1.7578">
        <ele>59</ele>
        <time>2015-02-25T17:29:53Z</time>
      </trkpt>
      <trkpt lat="50.45988" lon="1.7578">
        <ele>59</ele>
        <time>2015-02-25T17:29:55Z</time>
      </trkpt>
      <trkpt lat="50.45988" lon="1.75779">
        <ele>62</ele>
        <time>2015-02-25T17:30:06Z</time>
      </trkpt>
      <trkpt lat="50.45988" lon="1.7578">
        <ele>64</ele>
        <time>2015-02-25T17:30:17Z</time>
      </trkpt>
      <trkpt lat="50.45988" lon="1.7578">
        <ele>64</ele>
        <time>2015-02-25T17:30:31Z</time>
      </trkpt>
      <trkpt lat="50.45988" lon="1.7578">
        <ele>64</ele>
        <time>2015-02-25T17:30:39Z</time>
      </trkpt>
      <trkpt lat="50.45988" lon="1.7578">
        <ele>64</ele>
        <time>2015-02-25T17:30:50Z</time>
      </trkpt>
      <trkpt lat="50.45988" lon="1.7578">
        <ele>64</ele>
        <time>2015-02-25T17:31:01Z</time>
      </trkpt>
      <trkpt lat="50.45988" lon="1.7578">
        <ele>64</ele>
        <time>2015-02-25T17:31:14Z</time>
      </trkpt>
      <trkpt lat="50.45988" lon="1.7578">
        <ele>64</ele>
        <time>2015-02-25T17:31:23Z</time>
      </trkpt>
      <trkpt lat="50.45988" lon="1.7578">
        <ele>64</ele>
        <time>2015-02-25T17:31:34Z</time>
      </trkpt>
      <trkpt lat="50.45988" lon="1.7578">
        <ele>64</ele>
        <time>2015-02-25T17:31:49Z</time>
      </trkpt>
      <trkpt lat="50.45988" lon="1.7578">
        <ele>64</ele>
        <time>2015-02-25T17:31:56Z</time>
      </trkpt>
      <trkpt lat="50.45988" lon="1.7578">
        <ele>64</ele>
        <time>2015-02-25T17:32:07Z</time>
      </trkpt>
      <trkpt lat="50.45987" lon="1.7578">
        <ele>64</ele>
        <time>2015-02-25T17:32:19Z</time>
      </trkpt>
      <trkpt lat="50.45987" lon="1.7578">
        <ele>64</ele>
        <time>2015-02-25T17:32:29Z</time>
      </trkpt>
      <trkpt lat="50.45987" lon="1.7578">
        <ele>64</ele>
        <time>2015-02-25T17:32:45Z</time>
      </trkpt>
      <trkpt lat="50.45987" lon="1.75782">
        <ele>62</ele>
        <time>2015-02-25T17:32:52Z</time>
      </trkpt>
      <trkpt lat="50.45987" lon="1.75783">
        <ele>61</ele>
        <time>2015-02-25T17:33:02Z</time>
      </trkpt>
      <trkpt lat="50.45987" lon="1.75783">
        <ele>61</ele>
        <time>2015-02-25T17:33:18Z</time>
      </trkpt>
      <trkpt lat="50.45987" lon="1.75783">
        <ele>61</ele>
        <time>2015-02-25T17:33:28Z</time>
      </trkpt>
      <trkpt lat="50.45987" lon="1.75783">
        <ele>61</ele>
        <time>2015-02-25T17:33:36Z</time>
      </trkpt>
      <trkpt lat="50.45987" lon="1.75783">
        <ele>61</ele>
        <time>2015-02-25T17:33:46Z</time>
      </trkpt>
      <trkpt lat="50.45987" lon="1.75783">
        <ele>61</ele>
        <time>2015-02-25T17:33:57Z</time>
      </trkpt>
      <trkpt lat="50.45987" lon="1.7578">
        <ele>63</ele>
        <time>2015-02-25T17:34:08Z</time>
      </trkpt>
      <trkpt lat="50.45987" lon="1.75783">
        <ele>60</ele>
        <time>2015-02-25T17:34:23Z</time>
      </trkpt>
      <trkpt lat="50.45986" lon="1.75793">
        <ele>55</ele>
        <time>2015-02-25T17:34:32Z</time>
      </trkpt>
      <trkpt lat="50.45986" lon="1.7579">
        <ele>55</ele>
        <time>2015-02-25T17:34:41Z</time>
      </trkpt>
      <trkpt lat="50.45986" lon="1.75786">
        <ele>59</ele>
        <time>2015-02-25T17:34:52Z</time>
      </trkpt>
      <trkpt lat="50.45986" lon="1.75797">
        <ele>52</ele>
        <time>2015-02-25T17:35:03Z</time>
      </trkpt>
      <trkpt lat="50.45983" lon="1.75804">
        <ele>47</ele>
        <time>2015-02-25T17:35:18Z</time>
      </trkpt>
      <trkpt lat="50.45982" lon="1.75805">
        <ele>46</ele>
        <time>2015-02-25T17:35:25Z</time>
      </trkpt>
      <trkpt lat="50.45982" lon="1.75805">
        <ele>46</ele>
        <time>2015-02-25T17:35:43Z</time>
      </trkpt>
      <trkpt lat="50.45982" lon="1.75805">
        <ele>46</ele>
        <time>2015-02-25T17:35:52Z</time>
      </trkpt>
      <trkpt lat="50.45982" lon="1.75805">
        <ele>46</ele>
        <time>2015-02-25T17:35:58Z</time>
      </trkpt>
      <trkpt lat="50.45982" lon="1.75805">
        <ele>46</ele>
        <time>2015-02-25T17:36:18Z</time>
      </trkpt>
      <trkpt lat="50.45982" lon="1.75805">
        <ele>46</ele>
        <time>2015-02-25T17:36:22Z</time>
      </trkpt>
      <trkpt lat="50.45982" lon="1.75805">
        <ele>46</ele>
        <time>2015-02-25T17:36:32Z</time>
      </trkpt>
      <trkpt lat="50.45982" lon="1.75805">
        <ele>46</ele>
        <time>2015-02-25T17:36:42Z</time>
      </trkpt>
      <trkpt lat="50.45982" lon="1.75805">
        <ele>46</ele>
        <time>2015-02-25T17:36:58Z</time>
      </trkpt>
      <trkpt lat="50.45982" lon="1.75805">
        <ele>46</ele>
        <time>2015-02-25T17:37:04Z</time>
      </trkpt>
      <trkpt lat="50.45982" lon="1.75805">
        <ele>46</ele>
        <time>2015-02-25T17:37:16Z</time>
      </trkpt>
      <trkpt lat="50.45981" lon="1.7581">
        <ele>46</ele>
        <time>2015-02-25T17:37:36Z</time>
      </trkpt>
      <trkpt lat="50.45981" lon="1.75817">
        <ele>48</ele>
        <time>2015-02-25T17:37:42Z</time>
      </trkpt>
      <trkpt lat="50.45981" lon="1.75817">
        <ele>47</ele>
        <time>2015-02-25T17:37:49Z</time>
      </trkpt>
      <trkpt lat="50.45984" lon="1.75816">
        <ele>45</ele>
        <time>2015-02-25T17:37:59Z</time>
      </trkpt>
    </trkseg>
  </trk>
  <trk>
    <name><![CDATA[Sequence 2]]></name>
    <trkseg>
      <trkpt lat="50.46003" lon="1.75821">
        <ele>50</ele>
        <time>2015-02-25T17:38:20Z</time>
      </trkpt>
      <trkpt lat="50.46017" lon="1.75826">
        <ele>46</ele>
        <time>2015-02-25T17:38:36Z</time>
      </trkpt>
      <trkpt lat="50.46027" lon="1.75831">
        <ele>47</ele>
        <time>2015-02-25T17:38:45Z</time>
      </trkpt>
      <trkpt lat="50.46038" lon="1.75841">
        <ele>47</ele>
        <time>2015-02-25T17:38:59Z</time>
      </trkpt>
      <trkpt lat="50.46043" lon="1.75851">
        <ele>50</ele>
        <time>2015-02-25T17:39:05Z</time>
      </trkpt>
      <trkpt lat="50.46064" lon="1.75867">
        <ele>51</ele>
        <time>2015-02-25T17:39:23Z</time>
      </trkpt>
      <trkpt lat="50.4607" lon="1.75867">
        <ele>41</ele>
        <time>2015-02-25T17:39:31Z</time>
      </trkpt>
      <trkpt lat="50.46066" lon="1.75881">
        <ele>38</ele>
        <time>2015-02-25T17:39:41Z</time>
      </trkpt>
      <trkpt lat="50.46073" lon="1.75895">
        <ele>38</ele>
        <time>2015-02-25T17:39:51Z</time>
      </trkpt>
      <trkpt lat="50.46081" lon="1.75907">
        <ele>39</ele>
        <time>2015-02-25T17:40:00Z</time>
      </trkpt>
      <trkpt lat="50.46085" lon="1.75927">
        <ele>39</ele>
        <time>2015-02-25T17:40:12Z</time>
      </trkpt>
      <trkpt lat="50.46091" lon="1.75944">
        <ele>40</ele>
        <time>2015-02-25T17:40:22Z</time>
      </trkpt>
      <trkpt lat="50.46099" lon="1.75958">
        <ele>42</ele>
        <time>2015-02-25T17:40:32Z</time>
      </trkpt>
      <trkpt lat="50.4611" lon="1.75973">
        <ele>41</ele>
        <time>2015-02-25T17:40:44Z</time>
      </trkpt>
      <trkpt lat="50.46124" lon="1.76004">
        <ele>44</ele>
        <time>2015-02-25T17:41:04Z</time>
      </trkpt>
      <trkpt lat="50.46125" lon="1.76006">
        <ele>43</ele>
        <time>2015-02-25T17:41:05Z</time>
      </trkpt>
      <trkpt lat="50.46132" lon="1.76022">
        <ele>45</ele>
        <time>2015-02-25T17:41:17Z</time>
      </trkpt>
      <trkpt lat="50.46137" lon="1.76041">
        <ele>40</ele>
        <time>2015-02-25T17:41:27Z</time>
      </trkpt>
      <trkpt lat="50.4614" lon="1.7606">
        <ele>35</ele>
        <time>2015-02-25T17:41:38Z</time>
      </trkpt>
      <trkpt lat="50.46144" lon="1.76073">
        <ele>38</ele>
        <time>2015-02-25T17:41:49Z</time>
      </trkpt>
      <trkpt lat="50.46146" lon="1.76081">
        <ele>39</ele>
        <time>2015-02-25T17:42:01Z</time>
      </trkpt>
      <trkpt lat="50.46145" lon="1.76093">
        <ele>45</ele>
        <time>2015-02-25T17:42:11Z</time>
      </trkpt>
      <trkpt lat="50.4614" lon="1.76129">
        <ele>36</ele>
        <time>2015-02-25T17:42:30Z</time>
      </trkpt>
      <trkpt lat="50.46147" lon="1.76144">
        <ele>31</ele>
        <time>2015-02-25T17:42:40Z</time>
      </trkpt>
      <trkpt lat="50.4615" lon="1.76151">
        <ele>32</ele>
        <time>2015-02-25T17:42:44Z</time>
      </trkpt>
      <trkpt lat="50.46158" lon="1.7617">
        <ele>34</ele>
        <time>2015-02-25T17:42:55Z</time>
      </trkpt>
      <trkpt lat="50.46165" lon="1.7618">
        <ele>33</ele>
        <time>2015-02-25T17:43:06Z</time>
      </trkpt>
      <trkpt lat="50.46174" lon="1.76194">
        <ele>34</ele>
        <time>2015-02-25T17:43:17Z</time>
      </trkpt>
      <trkpt lat="50.46183" lon="1.76213">
        <ele>38</ele>
        <time>2015-02-25T17:43:30Z</time>
      </trkpt>
      <trkpt lat="50.46195" lon="1.76217">
        <ele>33</ele>
        <time>2015-02-25T17:43:42Z</time>
      </trkpt>
      <trkpt lat="50.46187" lon="1.76248">
        <ele>32</ele>
        <time>2015-02-25T17:44:00Z</time>
      </trkpt>
      <trkpt lat="50.46187" lon="1.76249">
        <ele>34</ele>
        <time>2015-02-25T17:44:01Z</time>
      </trkpt>
    </trkseg>
  </trk>
</gpx>